Airfield :
LOGIN :

Register | Disclaimer

   EN    FR    IT 

 










Legend :    VFR   Marginal VFR   IFR   Intensive IFR   Very Intensive IFR
Visi :
Ceiling :
>= 8 km
>= 3000ft
5 to 8 km
1000 to 3000 ft
1500m to 5 km
500 to 1000 ft
800 to 1500m
200 to 500 ft
< 800m
< 200 ft
Symbols :   Thunderstorms  Fog  Heavy snow  Heavy precipitations  Wind > 20 kt
SIGMETs :     Misc.  Thunderstorms  Icing  Turbulence  Mountain Waves  Volcanic Ashes






- Airport Elevation : 17 ft
- IATA code : MPL


LFMT - Montpellier Méditerranée

CURRENT METAR :
  • 260030Z AUTO 25009KT CAVOK 14/13 Q1006 BECMG 31010KT 4000 RA

EXPIRED METARs :
  • 260000Z AUTO 28003KT CAVOK 14/13 Q1005 BECMG 4000 RA
  • 252330Z AUTO 31006KT 9999 FEW033 SCT130 BKN180 14/13 Q1006 BECMG 4000 RA
  • 252300Z AUTO 32007KT 9999 FEW021 BKN030 OVC140 14/13 Q1006 BECMG 4000 RA
  • 252230Z AUTO 33007KT 9999 BKN018 BKN027 OVC160 14/13 Q1006 BECMG 4000 RA
  • 252200Z AUTO 35005KT 9999 BKN014 BKN024 OVC170 14/13 Q1006 BECMG 4000 RA BKN040

TAF TAF LFMT
Valid from the 25 at 21:00 until the 26 at 21:00 UTC


252000Z 2521/2621 01010KT 9999 FEW012 BKN020
BECMG 2521/2523 31010KT
BECMG 2523/2601 4000 RA BKN040
BECMG 2607/2609 9999 NSW
BECMG 2611/2613 30015G25KT CAVOK
BECMG 2619/2621 28010KT
ATIS : +33 4 67 13 11 70



MET'MAP, your aeronautical weather chart ! - Copyright ORBIFLY December 2007 - Disclaimer

ORBIFLY MET'MAP TEAM :

Programming & Development : Alexandra Zaïnal
Concept & original design : Baudouin d'Aumeries
Assistance for programming : Marc-Olivier Méhu
Technical & hardware support : Manuel Goepfert

Contact : metmap@orbifly.com




SOURCES & CREDITS :

   NOAA